sensor_id;sensor_type;location;lat;lon;timestamp;temperature;humidity
21267;DHT22;10791;53.108;18.326;2024-01-06T00:00:27;-2.90;99.90
21267;DHT22;10791;53.108;18.326;2024-01-06T00:05:50;-2.90;99.90
21267;DHT22;10791;53.108;18.326;2024-01-06T00:10:54;-2.90;99.90
21267;DHT22;10791;53.108;18.326;2024-01-06T00:15:57;-2.90;99.90
21267;DHT22;10791;53.108;18.326;2024-01-06T00:21:01;-2.90;99.90
21267;DHT22;10791;53.108;18.326;2024-01-06T00:26:05;-2.90;99.90
21267;DHT22;10791;53.108;18.326;2024-01-06T00:31:09;-2.90;99.90
21267;DHT22;10791;53.108;18.326;2024-01-06T00:36:12;-2.90;99.90
21267;DHT22;10791;53.108;18.326;2024-01-06T00:41:16;-2.90;99.90
21267;DHT22;10791;53.108;18.326;2024-01-06T00:46:19;-2.90;99.90
21267;DHT22;10791;53.108;18.326;2024-01-06T00:51:22;-2.80;99.90
21267;DHT22;10791;53.108;18.326;2024-01-06T00:56:25;-2.90;99.90
21267;DHT22;10791;53.108;18.326;2024-01-06T01:01:30;-2.80;99.90
21267;DHT22;10791;53.108;18.326;2024-01-06T01:06:33;-2.80;99.90
21267;DHT22;10791;53.108;18.326;2024-01-06T01:11:36;-2.80;99.90
21267;DHT22;10791;53.108;18.326;2024-01-06T01:16:40;-2.80;99.90
21267;DHT22;10791;53.108;18.326;2024-01-06T01:21:43;-2.80;99.90
21267;DHT22;10791;53.108;18.326;2024-01-06T01:26:46;-2.80;99.90
21267;DHT22;10791;53.108;18.326;2024-01-06T01:31:49;-2.80;99.90
21267;DHT22;10791;53.108;18.326;2024-01-06T01:36:52;-2.80;99.90
21267;DHT22;10791;53.108;18.326;2024-01-06T01:41:55;-2.80;99.90
21267;DHT22;10791;53.108;18.326;2024-01-06T01:46:59;-2.80;99.90
21267;DHT22;10791;53.108;18.326;2024-01-06T01:52:02;-2.80;99.90
21267;DHT22;10791;53.108;18.326;2024-01-06T01:57:06;-2.80;99.90
21267;DHT22;10791;53.108;18.326;2024-01-06T02:02:09;-2.80;99.90
21267;DHT22;10791;53.108;18.326;2024-01-06T02:07:13;-2.70;99.90
21267;DHT22;10791;53.108;18.326;2024-01-06T02:12:16;-2.70;99.90
21267;DHT22;10791;53.108;18.326;2024-01-06T02:17:19;-2.60;99.90
21267;DHT22;10791;53.108;18.326;2024-01-06T02:22:22;-2.70;99.90
21267;DHT22;10791;53.108;18.326;2024-01-06T02:27:26;-2.70;99.90
21267;DHT22;10791;53.108;18.326;2024-01-06T02:32:29;-2.70;99.90
21267;DHT22;10791;53.108;18.326;2024-01-06T02:37:32;-2.70;99.90
21267;DHT22;10791;53.108;18.326;2024-01-06T02:42:36;-2.70;99.90
21267;DHT22;10791;53.108;18.326;2024-01-06T02:47:39;-2.70;99.90
21267;DHT22;10791;53.108;18.326;2024-01-06T02:52:43;-2.70;99.90
21267;DHT22;10791;53.108;18.326;2024-01-06T02:57:47;-2.70;99.90
21267;DHT22;10791;53.108;18.326;2024-01-06T03:02:50;-2.70;99.90
21267;DHT22;10791;53.108;18.326;2024-01-06T03:07:53;-2.60;99.90
21267;DHT22;10791;53.108;18.326;2024-01-06T03:12:57;-2.60;99.90
21267;DHT22;10791;53.108;18.326;2024-01-06T03:18:00;-2.60;99.90
21267;DHT22;10791;53.108;18.326;2024-01-06T03:23:03;-2.60;99.90
21267;DHT22;10791;53.108;18.326;2024-01-06T03:28:06;-2.70;99.90
21267;DHT22;10791;53.108;18.326;2024-01-06T03:33:10;-2.60;99.90
21267;DHT22;10791;53.108;18.326;2024-01-06T03:38:15;-2.60;99.90
21267;DHT22;10791;53.108;18.326;2024-01-06T03:43:18;-2.60;99.90
21267;DHT22;10791;53.108;18.326;2024-01-06T03:48:21;-2.60;99.90
21267;DHT22;10791;53.108;18.326;2024-01-06T03:53:24;-2.70;99.90
21267;DHT22;10791;53.108;18.326;2024-01-06T03:58:29;-2.60;99.90
21267;DHT22;10791;53.108;18.326;2024-01-06T04:03:32;-2.60;99.90
21267;DHT22;10791;53.108;18.326;2024-01-06T04:08:36;-2.60;99.90
21267;DHT22;10791;53.108;18.326;2024-01-06T04:13:39;-2.60;99.90
21267;DHT22;10791;53.108;18.326;2024-01-06T04:18:43;-2.60;99.90
21267;DHT22;10791;53.108;18.326;2024-01-06T04:23:46;-2.60;99.90
21267;DHT22;10791;53.108;18.326;2024-01-06T04:28:49;-2.50;99.90
21267;DHT22;10791;53.108;18.326;2024-01-06T04:33:52;-2.60;99.90
21267;DHT22;10791;53.108;18.326;2024-01-06T04:38:55;-2.50;99.90
21267;DHT22;10791;53.108;18.326;2024-01-06T04:43:59;-2.50;99.90
21267;DHT22;10791;53.108;18.326;2024-01-06T04:49:02;-2.50;99.90
21267;DHT22;10791;53.108;18.326;2024-01-06T04:54:07;-2.50;99.90
21267;DHT22;10791;53.108;18.326;2024-01-06T04:59:11;-2.50;99.90
21267;DHT22;10791;53.108;18.326;2024-01-06T05:04:32;-2.50;99.90
21267;DHT22;10791;53.108;18.326;2024-01-06T05:09:36;-2.50;99.90
21267;DHT22;10791;53.108;18.326;2024-01-06T05:14:39;-2.50;99.90
21267;DHT22;10791;53.108;18.326;2024-01-06T05:19:43;-2.40;99.90
21267;DHT22;10791;53.108;18.326;2024-01-06T05:24:46;-2.40;99.90
21267;DHT22;10791;53.108;18.326;2024-01-06T05:29:49;-2.40;99.90
21267;DHT22;10791;53.108;18.326;2024-01-06T05:34:55;-2.40;99.90
21267;DHT22;10791;53.108;18.326;2024-01-06T05:39:59;-2.30;99.90
21267;DHT22;10791;53.108;18.326;2024-01-06T05:45:06;-2.30;99.90
21267;DHT22;10791;53.108;18.326;2024-01-06T05:50:10;-2.30;99.90
21267;DHT22;10791;53.108;18.326;2024-01-06T05:55:14;-2.30;99.90
21267;DHT22;10791;53.108;18.326;2024-01-06T06:00:17;-2.30;99.90
21267;DHT22;10791;53.108;18.326;2024-01-06T06:05:21;-2.20;99.90
21267;DHT22;10791;53.108;18.326;2024-01-06T06:10:24;-2.30;99.90
21267;DHT22;10791;53.108;18.326;2024-01-06T06:15:33;-2.30;99.90
21267;DHT22;10791;53.108;18.326;2024-01-06T06:20:36;-2.20;99.90
21267;DHT22;10791;53.108;18.326;2024-01-06T06:25:39;-2.20;99.90
21267;DHT22;10791;53.108;18.326;2024-01-06T06:30:42;-2.20;99.90
21267;DHT22;10791;53.108;18.326;2024-01-06T06:35:46;-2.20;99.90
21267;DHT22;10791;53.108;18.326;2024-01-06T06:40:49;-2.20;99.90
21267;DHT22;10791;53.108;18.326;2024-01-06T06:45:53;-2.20;99.90
21267;DHT22;10791;53.108;18.326;2024-01-06T06:50:58;-2.20;99.90
21267;DHT22;10791;53.108;18.326;2024-01-06T06:56:01;-2.10;99.90
21267;DHT22;10791;53.108;18.326;2024-01-06T07:01:06;-2.20;99.90
21267;DHT22;10791;53.108;18.326;2024-01-06T07:06:13;-2.20;99.90
21267;DHT22;10791;53.108;18.326;2024-01-06T07:11:18;-2.10;99.90
21267;DHT22;10791;53.108;18.326;2024-01-06T07:16:22;-2.10;99.90
21267;DHT22;10791;53.108;18.326;2024-01-06T07:21:26;-2.10;99.90
21267;DHT22;10791;53.108;18.326;2024-01-06T07:26:30;-2.10;99.90
21267;DHT22;10791;53.108;18.326;2024-01-06T07:31:33;-2.10;99.90
21267;DHT22;10791;53.108;18.326;2024-01-06T07:36:37;-2.10;99.90
21267;DHT22;10791;53.108;18.326;2024-01-06T07:41:41;-2.00;99.90
21267;DHT22;10791;53.108;18.326;2024-01-06T07:46:45;-2.00;99.90
21267;DHT22;10791;53.108;18.326;2024-01-06T07:51:48;-2.00;99.90
21267;DHT22;10791;53.108;18.326;2024-01-06T07:56:52;-2.00;99.90
21267;DHT22;10791;53.108;18.326;2024-01-06T08:01:56;-2.00;99.90
21267;DHT22;10791;53.108;18.326;2024-01-06T08:06:59;-2.00;99.90
21267;DHT22;10791;53.108;18.326;2024-01-06T08:12:04;-2.00;99.90
21267;DHT22;10791;53.108;18.326;2024-01-06T08:17:10;-1.90;99.90
21267;DHT22;10791;53.108;18.326;2024-01-06T08:22:19;-1.80;99.90
21267;DHT22;10791;53.108;18.326;2024-01-06T08:27:23;-1.80;99.90
21267;DHT22;10791;53.108;18.326;2024-01-06T08:32:27;-1.80;99.90
21267;DHT22;10791;53.108;18.326;2024-01-06T08:37:31;-1.80;99.90
21267;DHT22;10791;53.108;18.326;2024-01-06T08:42:35;-1.80;99.90
21267;DHT22;10791;53.108;18.326;2024-01-06T08:47:40;-1.70;99.90
21267;DHT22;10791;53.108;18.326;2024-01-06T08:52:44;-1.70;99.90
21267;DHT22;10791;53.108;18.326;2024-01-06T08:57:47;-1.60;99.90
21267;DHT22;10791;53.108;18.326;2024-01-06T09:02:51;-1.60;99.90
21267;DHT22;10791;53.108;18.326;2024-01-06T09:07:55;-1.60;99.90
21267;DHT22;10791;53.108;18.326;2024-01-06T09:12:58;-1.70;99.90
21267;DHT22;10791;53.108;18.326;2024-01-06T09:18:03;-1.70;99.90
21267;DHT22;10791;53.108;18.326;2024-01-06T09:23:06;-1.60;99.90
21267;DHT22;10791;53.108;18.326;2024-01-06T09:28:10;-1.60;99.90
21267;DHT22;10791;53.108;18.326;2024-01-06T09:33:14;-1.60;99.90
21267;DHT22;10791;53.108;18.326;2024-01-06T09:38:19;-1.50;99.90
21267;DHT22;10791;53.108;18.326;2024-01-06T09:43:22;-1.50;99.90
21267;DHT22;10791;53.108;18.326;2024-01-06T09:48:29;-1.50;99.90
21267;DHT22;10791;53.108;18.326;2024-01-06T09:53:42;-1.50;99.90
21267;DHT22;10791;53.108;18.326;2024-01-06T09:58:46;-1.50;99.90
21267;DHT22;10791;53.108;18.326;2024-01-06T10:03:50;-1.40;99.90
21267;DHT22;10791;53.108;18.326;2024-01-06T10:08:55;-1.40;99.90
21267;DHT22;10791;53.108;18.326;2024-01-06T10:13:59;-1.40;99.90
21267;DHT22;10791;53.108;18.326;2024-01-06T10:19:03;-1.40;99.90
21267;DHT22;10791;53.108;18.326;2024-01-06T10:24:08;-1.40;99.90
21267;DHT22;10791;53.108;18.326;2024-01-06T10:29:15;-1.40;99.90
21267;DHT22;10791;53.108;18.326;2024-01-06T10:34:19;-1.30;99.90
21267;DHT22;10791;53.108;18.326;2024-01-06T10:39:23;-1.30;99.90
21267;DHT22;10791;53.108;18.326;2024-01-06T10:44:26;-1.30;99.90
21267;DHT22;10791;53.108;18.326;2024-01-06T10:49:31;-1.30;99.90
21267;DHT22;10791;53.108;18.326;2024-01-06T10:54:36;-1.30;99.90
21267;DHT22;10791;53.108;18.326;2024-01-06T10:59:41;-1.30;99.90
21267;DHT22;10791;53.108;18.326;2024-01-06T11:04:46;-1.30;99.90
21267;DHT22;10791;53.108;18.326;2024-01-06T11:10:19;-1.40;99.90
21267;DHT22;10791;53.108;18.326;2024-01-06T11:15:44;-1.40;99.90
21267;DHT22;10791;53.108;18.326;2024-01-06T11:26:20;-1.50;99.90
21267;DHT22;10791;53.108;18.326;2024-01-06T11:31:28;-1.50;99.90
21267;DHT22;10791;53.108;18.326;2024-01-06T11:36:31;-1.50;99.90
21267;DHT22;10791;53.108;18.326;2024-01-06T11:41:48;-1.50;99.90
21267;DHT22;10791;53.108;18.326;2024-01-06T11:46:56;-1.50;99.90
21267;DHT22;10791;53.108;18.326;2024-01-06T11:52:00;-1.50;99.90
21267;DHT22;10791;53.108;18.326;2024-01-06T11:57:04;-1.50;99.90
21267;DHT22;10791;53.108;18.326;2024-01-06T12:02:11;-1.50;99.90
21267;DHT22;10791;53.108;18.326;2024-01-06T12:07:17;-1.50;99.90
21267;DHT22;10791;53.108;18.326;2024-01-06T12:12:21;-1.50;99.90
21267;DHT22;10791;53.108;18.326;2024-01-06T12:17:29;-1.50;99.90
21267;DHT22;10791;53.108;18.326;2024-01-06T12:22:33;-1.40;99.90
21267;DHT22;10791;53.108;18.326;2024-01-06T12:27:42;-1.50;99.90
21267;DHT22;10791;53.108;18.326;2024-01-06T12:32:47;-1.50;99.90
21267;DHT22;10791;53.108;18.326;2024-01-06T12:37:52;-1.50;99.90
21267;DHT22;10791;53.108;18.326;2024-01-06T12:42:55;-1.50;99.90
21267;DHT22;10791;53.108;18.326;2024-01-06T12:47:58;-1.50;99.90
21267;DHT22;10791;53.108;18.326;2024-01-06T12:53:03;-1.50;99.90
21267;DHT22;10791;53.108;18.326;2024-01-06T12:58:06;-1.50;99.90
21267;DHT22;10791;53.108;18.326;2024-01-06T13:03:11;-1.50;99.90
21267;DHT22;10791;53.108;18.326;2024-01-06T13:08:17;-1.50;99.90
21267;DHT22;10791;53.108;18.326;2024-01-06T13:13:21;-1.50;99.90
21267;DHT22;10791;53.108;18.326;2024-01-06T13:18:24;-1.50;99.90
21267;DHT22;10791;53.108;18.326;2024-01-06T13:23:27;-1.50;99.90
21267;DHT22;10791;53.108;18.326;2024-01-06T13:28:31;-1.50;99.90
21267;DHT22;10791;53.108;18.326;2024-01-06T13:33:34;-1.50;99.90
21267;DHT22;10791;53.108;18.326;2024-01-06T13:38:38;-1.50;99.90
21267;DHT22;10791;53.108;18.326;2024-01-06T13:43:42;-1.50;99.90
21267;DHT22;10791;53.108;18.326;2024-01-06T13:48:46;-1.50;99.90
21267;DHT22;10791;53.108;18.326;2024-01-06T13:53:50;-1.50;99.90
21267;DHT22;10791;53.108;18.326;2024-01-06T13:58:54;-1.50;99.90
21267;DHT22;10791;53.108;18.326;2024-01-06T14:03:58;-1.50;99.90
21267;DHT22;10791;53.108;18.326;2024-01-06T14:09:01;-1.60;99.90
21267;DHT22;10791;53.108;18.326;2024-01-06T14:14:05;-1.60;99.90
21267;DHT22;10791;53.108;18.326;2024-01-06T14:19:09;-1.60;99.90
21267;DHT22;10791;53.108;18.326;2024-01-06T14:24:12;-1.60;99.90
21267;DHT22;10791;53.108;18.326;2024-01-06T14:29:17;-1.60;99.90
21267;DHT22;10791;53.108;18.326;2024-01-06T14:34:21;-1.70;99.90
21267;DHT22;10791;53.108;18.326;2024-01-06T14:39:25;-1.70;99.90
21267;DHT22;10791;53.108;18.326;2024-01-06T14:44:29;-1.70;99.90
21267;DHT22;10791;53.108;18.326;2024-01-06T14:49:32;-1.70;99.90
21267;DHT22;10791;53.108;18.326;2024-01-06T14:54:37;-1.80;99.90
21267;DHT22;10791;53.108;18.326;2024-01-06T14:59:41;-1.80;99.90
21267;DHT22;10791;53.108;18.326;2024-01-06T15:04:46;-1.80;99.90
21267;DHT22;10791;53.108;18.326;2024-01-06T15:09:49;-1.80;99.90
21267;DHT22;10791;53.108;18.326;2024-01-06T15:14:53;-1.80;99.90
21267;DHT22;10791;53.108;18.326;2024-01-06T15:19:57;-1.80;99.90
21267;DHT22;10791;53.108;18.326;2024-01-06T15:25:01;-1.80;99.90
21267;DHT22;10791;53.108;18.326;2024-01-06T15:30:09;-1.80;99.90
21267;DHT22;10791;53.108;18.326;2024-01-06T15:35:13;-1.80;99.90
21267;DHT22;10791;53.108;18.326;2024-01-06T15:40:16;-1.80;99.90
21267;DHT22;10791;53.108;18.326;2024-01-06T15:45:20;-1.80;99.90
21267;DHT22;10791;53.108;18.326;2024-01-06T15:50:23;-1.80;99.90
21267;DHT22;10791;53.108;18.326;2024-01-06T15:55:26;-1.80;99.90
21267;DHT22;10791;53.108;18.326;2024-01-06T16:00:30;-1.80;99.90
21267;DHT22;10791;53.108;18.326;2024-01-06T16:05:38;-1.80;99.90
21267;DHT22;10791;53.108;18.326;2024-01-06T16:10:42;-1.80;99.90
21267;DHT22;10791;53.108;18.326;2024-01-06T16:15:46;-1.90;99.90
21267;DHT22;10791;53.108;18.326;2024-01-06T16:20:56;-1.90;99.90
21267;DHT22;10791;53.108;18.326;2024-01-06T16:26:04;-1.90;99.90
21267;DHT22;10791;53.108;18.326;2024-01-06T16:31:11;-1.90;99.90
21267;DHT22;10791;53.108;18.326;2024-01-06T16:36:19;-1.90;99.90
21267;DHT22;10791;53.108;18.326;2024-01-06T16:41:23;-1.90;99.90
21267;DHT22;10791;53.108;18.326;2024-01-06T16:46:32;-1.90;99.90
21267;DHT22;10791;53.108;18.326;2024-01-06T16:51:36;-2.00;99.90
21267;DHT22;10791;53.108;18.326;2024-01-06T16:56:39;-2.00;99.90
21267;DHT22;10791;53.108;18.326;2024-01-06T17:01:44;-2.00;99.90
21267;DHT22;10791;53.108;18.326;2024-01-06T17:06:48;-2.10;99.90
21267;DHT22;10791;53.108;18.326;2024-01-06T17:11:52;-2.00;99.90
21267;DHT22;10791;53.108;18.326;2024-01-06T17:16:59;-2.10;99.90
21267;DHT22;10791;53.108;18.326;2024-01-06T17:22:07;-2.10;99.90
21267;DHT22;10791;53.108;18.326;2024-01-06T17:27:12;-2.10;99.90
21267;DHT22;10791;53.108;18.326;2024-01-06T17:32:18;-2.10;99.90
21267;DHT22;10791;53.108;18.326;2024-01-06T17:37:24;-2.20;99.90
21267;DHT22;10791;53.108;18.326;2024-01-06T17:42:29;-2.30;99.90
21267;DHT22;10791;53.108;18.326;2024-01-06T17:47:34;-2.30;99.90
21267;DHT22;10791;53.108;18.326;2024-01-06T17:52:41;-2.30;99.90
21267;DHT22;10791;53.108;18.326;2024-01-06T17:57:45;-2.30;99.90
21267;DHT22;10791;53.108;18.326;2024-01-06T18:02:51;-2.30;99.90
21267;DHT22;10791;53.108;18.326;2024-01-06T18:07:58;-2.40;99.90
21267;DHT22;10791;53.108;18.326;2024-01-06T18:13:03;-2.40;99.90
21267;DHT22;10791;53.108;18.326;2024-01-06T18:18:08;-2.40;99.90
21267;DHT22;10791;53.108;18.326;2024-01-06T18:23:15;-2.50;99.90
21267;DHT22;10791;53.108;18.326;2024-01-06T18:28:21;-2.50;99.90
21267;DHT22;10791;53.108;18.326;2024-01-06T18:33:30;-2.60;99.90
21267;DHT22;10791;53.108;18.326;2024-01-06T18:38:37;-2.70;99.90
21267;DHT22;10791;53.108;18.326;2024-01-06T18:43:41;-2.80;99.90
21267;DHT22;10791;53.108;18.326;2024-01-06T18:48:47;-2.80;99.90
21267;DHT22;10791;53.108;18.326;2024-01-06T18:53:55;-2.90;99.90
21267;DHT22;10791;53.108;18.326;2024-01-06T18:59:00;-3.10;99.90
21267;DHT22;10791;53.108;18.326;2024-01-06T19:04:04;-3.20;99.90
21267;DHT22;10791;53.108;18.326;2024-01-06T19:09:10;-3.40;99.90
21267;DHT22;10791;53.108;18.326;2024-01-06T19:14:16;-3.60;99.90
21267;DHT22;10791;53.108;18.326;2024-01-06T19:22:40;-3.90;99.90
21267;DHT22;10791;53.108;18.326;2024-01-06T19:28:07;-4.00;99.90
21267;DHT22;10791;53.108;18.326;2024-01-06T19:33:12;-4.10;99.90
21267;DHT22;10791;53.108;18.326;2024-01-06T19:38:16;-4.20;99.90
21267;DHT22;10791;53.108;18.326;2024-01-06T19:43:22;-4.20;99.90
21267;DHT22;10791;53.108;18.326;2024-01-06T19:48:26;-4.20;99.90
21267;DHT22;10791;53.108;18.326;2024-01-06T19:53:31;-4.30;99.90
21267;DHT22;10791;53.108;18.326;2024-01-06T19:58:36;-4.30;99.90
21267;DHT22;10791;53.108;18.326;2024-01-06T20:03:40;-4.40;99.90
21267;DHT22;10791;53.108;18.326;2024-01-06T20:08:46;-4.40;99.90
21267;DHT22;10791;53.108;18.326;2024-01-06T20:13:53;-4.50;99.90
21267;DHT22;10791;53.108;18.326;2024-01-06T20:19:03;-4.50;99.90
21267;DHT22;10791;53.108;18.326;2024-01-06T20:24:12;-4.50;99.90
21267;DHT22;10791;53.108;18.326;2024-01-06T20:29:17;-4.50;99.90
21267;DHT22;10791;53.108;18.326;2024-01-06T20:34:24;-4.30;99.90
21267;DHT22;10791;53.108;18.326;2024-01-06T20:39:29;-4.20;99.90
21267;DHT22;10791;53.108;18.326;2024-01-06T20:44:34;-3.80;99.90
21267;DHT22;10791;53.108;18.326;2024-01-06T20:49:42;-3.60;99.90
21267;DHT22;10791;53.108;18.326;2024-01-06T20:54:47;-3.50;99.90
21267;DHT22;10791;53.108;18.326;2024-01-06T20:59:53;-3.40;99.90
21267;DHT22;10791;53.108;18.326;2024-01-06T21:05:00;-3.30;99.90
21267;DHT22;10791;53.108;18.326;2024-01-06T21:10:11;-3.30;99.90
21267;DHT22;10791;53.108;18.326;2024-01-06T21:15:16;-3.50;99.90
21267;DHT22;10791;53.108;18.326;2024-01-06T21:20:23;-3.60;99.90
21267;DHT22;10791;53.108;18.326;2024-01-06T21:25:29;-3.70;99.90
21267;DHT22;10791;53.108;18.326;2024-01-06T21:30:33;-3.90;99.90
21267;DHT22;10791;53.108;18.326;2024-01-06T21:35:38;-4.10;99.90
21267;DHT22;10791;53.108;18.326;2024-01-06T21:40:42;-4.20;99.90
21267;DHT22;10791;53.108;18.326;2024-01-06T21:45:48;-4.30;99.90
21267;DHT22;10791;53.108;18.326;2024-01-06T21:50:53;-4.40;99.90
21267;DHT22;10791;53.108;18.326;2024-01-06T21:55:58;-4.50;99.90
21267;DHT22;10791;53.108;18.326;2024-01-06T22:01:03;-4.50;99.90
21267;DHT22;10791;53.108;18.326;2024-01-06T22:06:07;-4.60;99.90
21267;DHT22;10791;53.108;18.326;2024-01-06T22:11:12;-4.60;99.90
21267;DHT22;10791;53.108;18.326;2024-01-06T22:16:16;-4.70;99.90
21267;DHT22;10791;53.108;18.326;2024-01-06T22:21:20;-4.80;99.90
21267;DHT22;10791;53.108;18.326;2024-01-06T22:26:25;-5.00;99.90
21267;DHT22;10791;53.108;18.326;2024-01-06T22:31:31;-5.00;99.90
21267;DHT22;10791;53.108;18.326;2024-01-06T22:36:36;-5.00;99.90
21267;DHT22;10791;53.108;18.326;2024-01-06T22:41:41;-5.10;99.90
21267;DHT22;10791;53.108;18.326;2024-01-06T22:46:49;-5.20;99.90
21267;DHT22;10791;53.108;18.326;2024-01-06T22:51:53;-5.20;99.90
21267;DHT22;10791;53.108;18.326;2024-01-06T22:56:57;-5.30;99.90
21267;DHT22;10791;53.108;18.326;2024-01-06T23:02:01;-5.40;99.90
21267;DHT22;10791;53.108;18.326;2024-01-06T23:07:04;-5.40;99.90
21267;DHT22;10791;53.108;18.326;2024-01-06T23:12:07;-5.40;99.90
21267;DHT22;10791;53.108;18.326;2024-01-06T23:17:11;-5.40;99.90
21267;DHT22;10791;53.108;18.326;2024-01-06T23:22:14;-5.50;99.90
21267;DHT22;10791;53.108;18.326;2024-01-06T23:27:18;-5.60;99.90
21267;DHT22;10791;53.108;18.326;2024-01-06T23:32:21;-5.60;99.90
21267;DHT22;10791;53.108;18.326;2024-01-06T23:37:29;-5.60;99.90
21267;DHT22;10791;53.108;18.326;2024-01-06T23:42:32;-5.60;99.90
21267;DHT22;10791;53.108;18.326;2024-01-06T23:47:35;-5.70;99.90
21267;DHT22;10791;53.108;18.326;2024-01-06T23:52:38;-5.80;99.90
21267;DHT22;10791;53.108;18.326;2024-01-06T23:57:41;-5.80;99.90
